Time;durP1;ratioP1;P1;durP2;ratioP2;P2;SDS_P1;SDS_P2;PMS_P1;PMS_P2;Temp;Humidity;BMP_temperature;BMP_pressure;BME280_temperature;BME280_humidity;BME280_pressure;Samples;Min_cycle;Max_cycle;Signal;HPM_P1;HPM_P2
2024/01/15 00:00:06;;;;;;;17.83;4.70;;;;;;;;;;5095592;28;20102;-62
2024/01/15 00:02:31;;;;;;;17.45;5.13;;;;;;;;;;5096175;28;20142;-62
2024/01/15 00:04:56;;;;;;;16.00;4.53;;;;;;;;;;5093014;28;20018;-62
2024/01/15 00:07:21;;;;;;;15.90;4.70;;;;;;;;;;5093886;28;20610;-62
2024/01/15 00:09:47;;;;;;;11.35;3.78;;;;;;;;;;5094028;28;20020;-62
2024/01/15 00:12:12;;;;;;;10.50;3.60;;;;;;;;;;5094364;28;20032;-61
2024/01/15 00:14:37;;;;;;;8.77;3.40;;;;;;;;;;5092805;28;20331;-61
2024/01/15 00:17:02;;;;;;;11.20;3.60;;;;;;;;;;5094453;28;20344;-63
2024/01/15 00:19:27;;;;;;;9.95;3.28;;;;;;;;;;5092467;28;20261;-61
2024/01/15 00:21:53;;;;;;;11.30;3.40;;;;;;;;;;5094960;28;20363;-62
2024/01/15 00:24:19;;;;;;;11.50;3.65;;;;;;;;;;5092237;28;20372;-63
2024/01/15 00:26:44;;;;;;;10.50;3.47;;;;;;;;;;5094345;28;23543;-62
2024/01/15 00:29:09;;;;;;;11.60;3.80;;;;;;;;;;5094252;28;20046;-62
2024/01/15 00:31:34;;;;;;;10.57;3.70;;;;;;;;;;5093873;28;20020;-62
2024/01/15 00:34:00;;;;;;;9.93;3.50;;;;;;;;;;5094130;28;20346;-62
2024/01/15 00:36:25;;;;;;;12.03;3.40;;;;;;;;;;5092632;28;20161;-63
2024/01/15 00:38:51;;;;;;;10.52;3.25;;;;;;;;;;5092319;28;21275;-63
2024/01/15 00:41:16;;;;;;;11.05;3.10;;;;;;;;;;5092306;28;20019;-63
2024/01/15 00:43:41;;;;;;;11.15;3.20;;;;;;;;;;5091563;28;20038;-63
2024/01/15 00:46:06;;;;;;;8.63;3.00;;;;;;;;;;5091046;28;20051;-63
2024/01/15 00:48:32;;;;;;;10.37;3.30;;;;;;;;;;5092236;28;20302;-63
2024/01/15 00:50:57;;;;;;;13.32;3.20;;;;;;;;;;5091133;28;20788;-61
2024/01/15 00:53:22;;;;;;;11.65;3.10;;;;;;;;;;5094085;28;21346;-62
2024/01/15 00:55:48;;;;;;;7.60;2.63;;;;;;;;;;5091473;28;20485;-62
2024/01/15 00:58:13;;;;;;;10.50;2.85;;;;;;;;;;5094511;28;20045;-62
2024/01/15 01:00:38;;;;;;;9.33;2.80;;;;;;;;;;5093883;28;20020;-61
2024/01/15 01:03:04;;;;;;;9.83;2.87;;;;;;;;;;5091574;28;20273;-63
2024/01/15 01:05:29;;;;;;;11.77;3.17;;;;;;;;;;5094220;28;20794;-63
2024/01/15 01:07:54;;;;;;;13.70;3.23;;;;;;;;;;5093389;28;20424;-63
2024/01/15 01:10:19;;;;;;;12.43;3.75;;;;;;;;;;5093623;28;20269;-62
2024/01/15 01:12:44;;;;;;;15.87;4.47;;;;;;;;;;5093263;28;20031;-62
2024/01/15 01:15:10;;;;;;;14.10;4.10;;;;;;;;;;5093987;28;20737;-62
2024/01/15 01:17:35;;;;;;;14.77;4.50;;;;;;;;;;5094040;28;20271;-62
2024/01/15 01:20:00;;;;;;;17.13;4.40;;;;;;;;;;5094865;28;20329;-62
2024/01/15 01:22:25;;;;;;;18.38;4.78;;;;;;;;;;5093903;28;20264;-60
2024/01/15 01:24:50;;;;;;;17.50;4.50;;;;;;;;;;5092750;28;20023;-62
2024/01/15 01:27:15;;;;;;;17.33;4.47;;;;;;;;;;5093272;28;20266;-62
2024/01/15 01:29:41;;;;;;;12.97;4.03;;;;;;;;;;5092561;28;20299;-62
2024/01/15 01:32:06;;;;;;;18.40;4.70;;;;;;;;;;5091881;28;20327;-61
2024/01/15 01:34:32;;;;;;;16.80;3.40;;;;;;;;;;5093261;28;20273;-63
2024/01/15 01:36:57;;;;;;;8.98;3.20;;;;;;;;;;5092880;28;20352;-62
2024/01/15 01:39:23;;;;;;;13.80;3.33;;;;;;;;;;5093627;28;20681;-63
2024/01/15 01:41:48;;;;;;;15.25;2.97;;;;;;;;;;5095166;28;20257;-63
2024/01/15 01:44:13;;;;;;;11.23;2.58;;;;;;;;;;5093183;28;20020;-63
2024/01/15 01:46:41;;;;;;;9.97;2.60;;;;;;;;;;5095325;28;20040;-63
2024/01/15 01:49:07;;;;;;;8.32;2.15;;;;;;;;;;5092644;28;20265;-62
2024/01/15 01:51:34;;;;;;;10.23;2.30;;;;;;;;;;5097015;28;20024;-62
2024/01/15 01:54:00;;;;;;;11.52;2.42;;;;;;;;;;5097141;28;20460;-62
2024/01/15 01:56:25;;;;;;;8.65;2.95;;;;;;;;;;5097524;28;20026;-62
2024/01/15 01:58:50;;;;;;;8.18;2.00;;;;;;;;;;5096450;28;20097;-62
2024/01/15 02:01:15;;;;;;;10.30;2.13;;;;;;;;;;5097203;28;20085;-62
2024/01/15 02:03:41;;;;;;;7.68;2.20;;;;;;;;;;5098280;28;20394;-63
2024/01/15 02:06:06;;;;;;;6.97;2.03;;;;;;;;;;5095964;28;20107;-62
2024/01/15 02:08:31;;;;;;;7.53;2.20;;;;;;;;;;5096946;28;20029;-62
2024/01/15 02:10:56;;;;;;;7.93;2.30;;;;;;;;;;5096808;28;20042;-63
2024/01/15 02:13:22;;;;;;;9.50;2.07;;;;;;;;;;5096128;28;20123;-63
2024/01/15 02:15:47;;;;;;;13.45;2.10;;;;;;;;;;5096411;28;20343;-62
2024/01/15 02:18:12;;;;;;;8.77;2.57;;;;;;;;;;5095275;28;20434;-62
2024/01/15 02:20:37;;;;;;;6.78;1.98;;;;;;;;;;5094751;28;20341;-62
2024/01/15 02:23:07;;;;;;;7.53;2.00;;;;;;;;;;5095995;28;20040;-62
2024/01/15 02:25:32;;;;;;;8.63;2.00;;;;;;;;;;5096669;28;20347;-62
2024/01/15 02:27:58;;;;;;;11.27;2.45;;;;;;;;;;5097122;28;20012;-62
2024/01/15 02:30:23;;;;;;;10.27;2.45;;;;;;;;;;5098659;28;20396;-62
2024/01/15 02:32:49;;;;;;;10.90;2.30;;;;;;;;;;5095092;28;20064;-63
2024/01/15 02:35:14;;;;;;;11.98;2.38;;;;;;;;;;5094568;28;20058;-62
2024/01/15 02:37:39;;;;;;;10.25;2.35;;;;;;;;;;5095498;28;20031;-62
2024/01/15 02:40:04;;;;;;;8.60;2.20;;;;;;;;;;5097354;28;20024;-62
2024/01/15 02:42:30;;;;;;;8.38;2.13;;;;;;;;;;5097486;28;20257;-62
2024/01/15 02:44:55;;;;;;;7.20;2.23;;;;;;;;;;5098035;28;20355;-62
2024/01/15 02:47:20;;;;;;;8.80;2.60;;;;;;;;;;5096799;28;20356;-62
2024/01/15 02:49:45;;;;;;;8.83;2.00;;;;;;;;;;5096647;28;20277;-62
2024/01/15 02:52:10;;;;;;;8.63;2.37;;;;;;;;;;5096867;28;20289;-62
2024/01/15 02:54:35;;;;;;;14.17;2.20;;;;;;;;;;5093469;28;20266;-62
2024/01/15 02:57:01;;;;;;;12.93;3.03;;;;;;;;;;5093803;28;20826;-62
2024/01/15 02:59:26;;;;;;;13.37;2.47;;;;;;;;;;5094898;28;20258;-62
2024/01/15 03:01:51;;;;;;;11.77;2.20;;;;;;;;;;5096440;28;20682;-62
2024/01/15 03:04:16;;;;;;;10.27;2.40;;;;;;;;;;5096467;28;20028;-61
2024/01/15 03:06:41;;;;;;;8.27;2.17;;;;;;;;;;5093668;28;20262;-62
2024/01/15 03:09:06;;;;;;;12.57;2.00;;;;;;;;;;5096461;28;20686;-61
2024/01/15 03:11:38;;;;;;;7.63;1.93;;;;;;;;;;5094806;28;20313;-61
2024/01/15 03:14:04;;;;;;;7.68;1.92;;;;;;;;;;5093153;28;20333;-61
2024/01/15 03:16:29;;;;;;;9.98;1.90;;;;;;;;;;5093924;28;20012;-61
2024/01/15 03:18:54;;;;;;;9.00;1.90;;;;;;;;;;5093327;28;20406;-61
2024/01/15 03:21:19;;;;;;;9.23;2.83;;;;;;;;;;5094953;28;20281;-61
2024/01/15 03:23:44;;;;;;;10.87;2.20;;;;;;;;;;5095230;27;20265;-61
2024/01/15 03:26:09;;;;;;;13.13;2.03;;;;;;;;;;5095693;28;20761;-61
2024/01/15 03:28:35;;;;;;;11.80;2.27;;;;;;;;;;5076733;28;20322;-61
2024/01/15 03:31:00;;;;;;;10.98;1.88;;;;;;;;;;5093266;28;20784;-61
2024/01/15 03:33:25;;;;;;;7.07;1.77;;;;;;;;;;5096430;28;20041;-62
2024/01/15 03:35:50;;;;;;;7.23;1.53;;;;;;;;;;5094223;28;20455;-62
2024/01/15 03:38:15;;;;;;;6.60;1.58;;;;;;;;;;5096066;28;20269;-62
2024/01/15 03:40:41;;;;;;;9.77;1.80;;;;;;;;;;5095989;28;20020;-62
2024/01/15 03:43:06;;;;;;;9.23;1.70;;;;;;;;;;5095282;28;20363;-62
2024/01/15 03:45:31;;;;;;;8.93;1.90;;;;;;;;;;5096502;28;20044;-62
2024/01/15 03:47:57;;;;;;;8.23;2.00;;;;;;;;;;5095084;28;21284;-62
2024/01/15 03:50:22;;;;;;;5.97;1.90;;;;;;;;;;5094611;28;20315;-61
2024/01/15 03:52:47;;;;;;;7.27;1.90;;;;;;;;;;5093600;28;20024;-62
2024/01/15 03:55:12;;;;;;;9.27;2.00;;;;;;;;;;5095828;28;20292;-61
2024/01/15 03:57:37;;;;;;;12.52;2.08;;;;;;;;;;5094739;28;20024;-61
2024/01/15 04:00:03;;;;;;;9.40;2.05;;;;;;;;;;5094722;28;20799;-62
2024/01/15 04:02:28;;;;;;;8.98;1.90;;;;;;;;;;5094590;28;20024;-62
2024/01/15 04:04:53;;;;;;;10.02;1.90;;;;;;;;;;5094210;28;20630;-62
2024/01/15 04:07:19;;;;;;;13.10;2.20;;;;;;;;;;5095630;28;20515;-62
2024/01/15 04:09:44;;;;;;;12.85;2.58;;;;;;;;;;5095460;28;20024;-63
2024/01/15 04:12:09;;;;;;;13.55;2.20;;;;;;;;;;5085208;22;20406;-58
2024/01/15 04:14:34;;;;;;;12.77;2.08;;;;;;;;;;5014242;22;20053;-58
2024/01/15 04:16:59;;;;;;;9.00;1.90;;;;;;;;;;5013988;28;20040;-57
2024/01/15 04:19:24;;;;;;;7.97;1.97;;;;;;;;;;5012823;28;20268;-58
2024/01/15 04:21:50;;;;;;;10.83;2.33;;;;;;;;;;5013990;28;20280;-58
2024/01/15 04:24:17;;;;;;;12.37;2.43;;;;;;;;;;5016330;28;20818;-58
2024/01/15 04:26:42;;;;;;;15.48;2.00;;;;;;;;;;5015088;28;20647;-58
2024/01/15 04:29:08;;;;;;;12.83;2.10;;;;;;;;;;5015115;28;20025;-58
2024/01/15 04:31:33;;;;;;;7.93;1.80;;;;;;;;;;5015693;28;20280;-58
2024/01/15 04:33:58;;;;;;;15.47;2.70;;;;;;;;;;5016210;28;20113;-58
2024/01/15 04:36:23;;;;;;;14.48;2.40;;;;;;;;;;5014869;28;20272;-58
2024/01/15 04:38:48;;;;;;;9.68;2.10;;;;;;;;;;5016002;28;20025;-58
2024/01/15 04:41:14;;;;;;;18.53;2.70;;;;;;;;;;5014009;28;20017;-58
2024/01/15 04:43:39;;;;;;;12.25;3.33;;;;;;;;;;5014080;28;20265;-58
2024/01/15 04:46:05;;;;;;;12.90;3.10;;;;;;;;;;5014300;28;20030;-61
2024/01/15 04:48:31;;;;;;;14.75;2.20;;;;;;;;;;5015144;28;20025;-60
2024/01/15 04:50:56;;;;;;;17.43;3.00;;;;;;;;;;5013573;28;20424;-59
2024/01/15 04:53:21;;;;;;;12.67;2.60;;;;;;;;;;5014450;28;20279;-58
2024/01/15 04:55:46;;;;;;;10.32;2.35;;;;;;;;;;5012955;28;20264;-59
2024/01/15 04:58:11;;;;;;;10.37;2.30;;;;;;;;;;5012999;28;20271;-59
2024/01/15 05:00:36;;;;;;;13.68;2.80;;;;;;;;;;5014043;28;20417;-61
2024/01/15 05:03:02;;;;;;;14.27;2.17;;;;;;;;;;5013739;28;20080;-59
2024/01/15 05:05:28;;;;;;;12.00;2.83;;;;;;;;;;5012314;28;20259;-58
2024/01/15 05:07:53;;;;;;;11.57;2.65;;;;;;;;;;5013181;28;20033;-57
2024/01/15 05:10:18;;;;;;;9.55;2.00;;;;;;;;;;5011987;28;20033;-58
2024/01/15 05:12:43;;;;;;;7.23;1.90;;;;;;;;;;5013610;28;20028;-58
2024/01/15 05:15:09;;;;;;;11.53;2.07;;;;;;;;;;5012334;28;20671;-58
2024/01/15 05:17:34;;;;;;;6.72;2.15;;;;;;;;;;5013066;28;20287;-59
2024/01/15 05:19:59;;;;;;;7.90;2.17;;;;;;;;;;5013814;28;21508;-58
2024/01/15 05:22:25;;;;;;;6.10;1.87;;;;;;;;;;5012414;28;20380;-58
2024/01/15 05:24:50;;;;;;;10.52;2.50;;;;;;;;;;5013248;28;20728;-59
2024/01/15 05:27:15;;;;;;;9.33;2.20;;;;;;;;;;5017706;28;20028;-59
2024/01/15 05:29:40;;;;;;;8.00;2.20;;;;;;;;;;5018807;28;20339;-58
2024/01/15 05:32:06;;;;;;;12.33;2.10;;;;;;;;;;5018223;28;20296;-58
2024/01/15 05:34:31;;;;;;;11.30;2.10;;;;;;;;;;5018181;28;20272;-60
2024/01/15 05:36:56;;;;;;;13.93;2.50;;;;;;;;;;5017072;28;20335;-60
2024/01/15 05:39:21;;;;;;;13.60;2.42;;;;;;;;;;5017414;28;20391;-59
2024/01/15 05:41:46;;;;;;;12.90;2.40;;;;;;;;;;5017998;28;20025;-59
2024/01/15 05:44:11;;;;;;;12.27;2.30;;;;;;;;;;5016844;28;20032;-59
2024/01/15 05:46:37;;;;;;;10.10;2.07;;;;;;;;;;5017439;28;20265;-59
2024/01/15 05:49:02;;;;;;;8.13;2.13;;;;;;;;;;5016069;28;20291;-59
2024/01/15 05:51:27;;;;;;;10.73;2.07;;;;;;;;;;5016389;28;20288;-59
2024/01/15 05:53:52;;;;;;;9.87;2.20;;;;;;;;;;5016646;28;20295;-58
2024/01/15 05:56:17;;;;;;;9.20;2.30;;;;;;;;;;5016769;28;20340;-59
2024/01/15 05:58:42;;;;;;;11.20;2.50;;;;;;;;;;5019073;28;20268;-60
2024/01/15 06:01:08;;;;;;;9.30;2.40;;;;;;;;;;5016556;28;20776;-59
2024/01/15 06:03:33;;;;;;;8.70;2.33;;;;;;;;;;5015520;28;20311;-59
2024/01/15 06:05:58;;;;;;;8.00;2.37;;;;;;;;;;5017628;28;20264;-59
2024/01/15 06:08:23;;;;;;;6.90;2.60;;;;;;;;;;5016740;28;20280;-59
2024/01/15 06:10:48;;;;;;;10.48;2.55;;;;;;;;;;5016483;28;20014;-58
2024/01/15 06:13:13;;;;;;;10.25;2.70;;;;;;;;;;5017734;28;20276;-58
2024/01/15 06:15:39;;;;;;;7.37;2.20;;;;;;;;;;5019955;28;20049;-60
2024/01/15 06:18:04;;;;;;;11.43;2.22;;;;;;;;;;5018856;28;20269;-60
2024/01/15 06:20:29;;;;;;;8.00;2.20;;;;;;;;;;5024547;28;20370;-59
2024/01/15 06:22:54;;;;;;;8.82;2.28;;;;;;;;;;5020240;28;20044;-59
2024/01/15 06:25:20;;;;;;;7.55;2.20;;;;;;;;;;5021837;28;20089;-59
2024/01/15 06:27:45;;;;;;;7.45;2.13;;;;;;;;;;5021601;28;20013;-60
2024/01/15 06:30:10;;;;;;;11.70;3.00;;;;;;;;;;5019026;28;20717;-59
2024/01/15 06:32:35;;;;;;;6.30;2.10;;;;;;;;;;5017674;28;20301;-60
2024/01/15 06:35:01;;;;;;;9.10;2.60;;;;;;;;;;5019167;28;20018;-59
2024/01/15 06:37:26;;;;;;;11.37;2.57;;;;;;;;;;5021949;28;20136;-60
2024/01/15 06:39:51;;;;;;;13.63;2.85;;;;;;;;;;5024810;28;20264;-59
2024/01/15 06:42:16;;;;;;;8.15;2.30;;;;;;;;;;5021339;28;20470;-59
2024/01/15 06:44:42;;;;;;;9.32;2.50;;;;;;;;;;5021038;28;20026;-59
2024/01/15 06:47:07;;;;;;;11.98;2.80;;;;;;;;;;5023185;28;20497;-58
2024/01/15 06:49:32;;;;;;;10.47;3.00;;;;;;;;;;5021814;28;20496;-58
2024/01/15 06:51:57;;;;;;;13.23;2.92;;;;;;;;;;5024782;28;20283;-58
2024/01/15 06:54:23;;;;;;;11.83;3.13;;;;;;;;;;5022795;28;20029;-59
2024/01/15 06:56:48;;;;;;;11.30;3.25;;;;;;;;;;5022020;28;20260;-58
2024/01/15 06:59:14;;;;;;;13.60;3.28;;;;;;;;;;5019448;28;20489;-58
2024/01/15 07:01:39;;;;;;;13.00;3.53;;;;;;;;;;5019212;28;20025;-59
2024/01/15 07:04:04;;;;;;;13.30;3.37;;;;;;;;;;5021532;28;20406;-59
2024/01/15 07:06:30;;;;;;;10.97;3.27;;;;;;;;;;5020780;28;20253;-59
2024/01/15 07:08:55;;;;;;;13.80;3.72;;;;;;;;;;5017861;28;20728;-59
2024/01/15 07:11:20;;;;;;;12.13;3.80;;;;;;;;;;5018081;28;20036;-58
2024/01/15 07:13:46;;;;;;;12.30;3.27;;;;;;;;;;5018707;28;20387;-58
2024/01/15 07:16:11;;;;;;;16.03;3.57;;;;;;;;;;5018417;28;21926;-58
2024/01/15 07:18:36;;;;;;;13.23;3.90;;;;;;;;;;5018615;28;20402;-59
2024/01/15 07:21:02;;;;;;;15.85;4.18;;;;;;;;;;5019407;28;20644;-59
2024/01/15 07:23:27;;;;;;;11.18;3.30;;;;;;;;;;5017581;28;20478;-58
2024/01/15 07:25:53;;;;;;;11.20;3.27;;;;;;;;;;5017857;28;20033;-59
2024/01/15 07:28:19;;;;;;;12.90;3.53;;;;;;;;;;5018712;28;20672;-59
2024/01/15 07:30:44;;;;;;;13.17;3.67;;;;;;;;;;5017787;28;20052;-59
2024/01/15 07:33:10;;;;;;;12.88;3.30;;;;;;;;;;5013521;28;20280;-58
2024/01/15 07:35:35;;;;;;;13.20;3.38;;;;;;;;;;5015879;28;20025;-58
2024/01/15 07:38:01;;;;;;;14.53;3.20;;;;;;;;;;5015527;28;20675;-58
2024/01/15 07:40:26;;;;;;;11.80;3.05;;;;;;;;;;5016743;28;20278;-57
2024/01/15 07:42:51;;;;;;;11.87;3.07;;;;;;;;;;5018062;28;20029;-58
2024/01/15 07:45:17;;;;;;;13.40;3.38;;;;;;;;;;5015007;28;21671;-61
2024/01/15 07:47:42;;;;;;;14.57;3.20;;;;;;;;;;5014965;28;20017;-58
2024/01/15 07:50:07;;;;;;;14.00;3.70;;;;;;;;;;5013107;28;20030;-58
2024/01/15 07:52:33;;;;;;;14.07;3.30;;;;;;;;;;5014411;28;20386;-59
2024/01/15 07:54:59;;;;;;;13.53;3.70;;;;;;;;;;5013935;28;20032;-60
2024/01/15 07:57:26;;;;;;;15.18;4.18;;;;;;;;;;5014459;28;20272;-59
2024/01/15 07:59:51;;;;;;;15.00;3.80;;;;;;;;;;5014387;28;20029;-60
2024/01/15 08:02:16;;;;;;;13.27;4.03;;;;;;;;;;5012680;28;20033;-58
2024/01/15 08:04:42;;;;;;;10.95;3.25;;;;;;;;;;5014336;28;20082;-59
2024/01/15 08:07:07;;;;;;;16.00;4.88;;;;;;;;;;5014212;28;20030;-59
2024/01/15 08:09:33;;;;;;;15.55;4.30;;;;;;;;;;5014052;28;20431;-59
2024/01/15 08:11:58;;;;;;;19.48;4.72;;;;;;;;;;5014129;28;20524;-58
2024/01/15 08:14:23;;;;;;;18.67;5.33;;;;;;;;;;5012979;28;20049;-59
2024/01/15 08:16:49;;;;;;;18.23;4.32;;;;;;;;;;5016183;28;20299;-59
2024/01/15 08:19:14;;;;;;;16.52;3.97;;;;;;;;;;5023418;28;20494;-59
2024/01/15 08:21:39;;;;;;;16.55;4.57;;;;;;;;;;5013723;28;20053;-59
2024/01/15 08:24:05;;;;;;;14.68;4.22;;;;;;;;;;5011868;28;20025;-60
2024/01/15 08:26:30;;;;;;;15.68;4.35;;;;;;;;;;5011449;28;20026;-58
2024/01/15 08:28:55;;;;;;;19.55;6.32;;;;;;;;;;5012308;28;20021;-59
2024/01/15 08:31:21;;;;;;;13.10;3.88;;;;;;;;;;5010127;28;20041;-60
2024/01/15 08:33:46;;;;;;;10.95;3.47;;;;;;;;;;5011613;28;20009;-59
2024/01/15 08:36:11;;;;;;;14.75;3.95;;;;;;;;;;5012793;28;20072;-59
2024/01/15 08:38:36;;;;;;;13.75;3.85;;;;;;;;;;5012598;28;20033;-62
2024/01/15 08:41:02;;;;;;;16.02;5.15;;;;;;;;;;5012332;28;20021;-60
2024/01/15 08:43:27;;;;;;;13.20;4.03;;;;;;;;;;5012948;28;20026;-59
2024/01/15 08:45:52;;;;;;;14.13;4.20;;;;;;;;;;5011769;28;20080;-59
2024/01/15 08:48:18;;;;;;;11.68;3.65;;;;;;;;;;5012201;28;20021;-58
2024/01/15 08:50:45;;;;;;;12.37;3.73;;;;;;;;;;5012679;28;20474;-59
2024/01/15 08:53:11;;;;;;;12.23;3.85;;;;;;;;;;5012069;28;20771;-58
2024/01/15 08:55:36;;;;;;;14.50;4.40;;;;;;;;;;5013248;28;20028;-59
2024/01/15 08:58:02;;;;;;;13.25;4.10;;;;;;;;;;5011697;28;20120;-58
2024/01/15 09:00:27;;;;;;;13.27;4.22;;;;;;;;;;5012993;28;20487;-58
2024/01/15 09:02:53;;;;;;;17.07;4.80;;;;;;;;;;5011072;28;20036;-58
2024/01/15 09:05:18;;;;;;;16.60;5.18;;;;;;;;;;5013170;28;20253;-59
2024/01/15 09:07:45;;;;;;;15.43;4.93;;;;;;;;;;5013180;28;20033;-59
2024/01/15 09:10:11;;;;;;;15.27;4.85;;;;;;;;;;5012007;28;20850;-60
2024/01/15 09:12:36;;;;;;;14.77;4.43;;;;;;;;;;5011884;28;20457;-59
2024/01/15 09:15:04;;;;;;;18.13;5.72;;;;;;;;;;5011785;28;20299;-59
2024/01/15 09:17:29;;;;;;;18.60;5.60;;;;;;;;;;5010108;28;21430;-59
2024/01/15 09:19:54;;;;;;;18.50;6.10;;;;;;;;;;5010635;28;20025;-59
2024/01/15 09:22:19;;;;;;;20.93;6.53;;;;;;;;;;5019262;28;20279;-58
2024/01/15 09:24:45;;;;;;;18.55;5.55;;;;;;;;;;5014201;28;20374;-59
2024/01/15 09:27:10;;;;;;;17.38;5.90;;;;;;;;;;5011980;28;20018;-59
2024/01/15 09:29:39;;;;;;;17.50;5.60;;;;;;;;;;5012145;28;20018;-58
2024/01/15 09:32:05;;;;;;;15.32;5.15;;;;;;;;;;5010768;28;20068;-60
2024/01/15 09:34:30;;;;;;;13.93;5.03;;;;;;;;;;5011510;28;20465;-59
2024/01/15 09:36:55;;;;;;;14.60;4.53;;;;;;;;;;5010508;28;20080;-58
2024/01/15 09:39:21;;;;;;;15.82;4.80;;;;;;;;;;5012069;28;21565;-59
2024/01/15 09:41:47;;;;;;;17.95;5.10;;;;;;;;;;5010728;28;20017;-59
2024/01/15 09:44:13;;;;;;;16.45;4.72;;;;;;;;;;5012419;28;20022;-59
2024/01/15 09:46:38;;;;;;;16.55;3.75;;;;;;;;;;5016307;28;20457;-59
2024/01/15 09:49:05;;;;;;;13.88;4.50;;;;;;;;;;5014926;28;20481;-60
2024/01/15 09:51:31;;;;;;;14.43;3.80;;;;;;;;;;5011340;28;20048;-59
2024/01/15 09:53:57;;;;;;;12.15;2.90;;;;;;;;;;5011751;28;20026;-59
2024/01/15 09:56:22;;;;;;;8.88;2.70;;;;;;;;;;5010896;28;20032;-59
2024/01/15 09:58:48;;;;;;;7.75;2.50;;;;;;;;;;5010944;28;20486;-61
2024/01/15 10:01:15;;;;;;;10.70;2.10;;;;;;;;;;5016539;28;20025;-60
2024/01/15 10:03:40;;;;;;;9.68;2.22;;;;;;;;;;5012112;28;20096;-59
2024/01/15 10:06:07;;;;;;;8.23;2.55;;;;;;;;;;5010494;28;20024;-59
2024/01/15 10:08:33;;;;;;;11.50;2.40;;;;;;;;;;5009869;28;20033;-61
2024/01/15 10:10:58;;;;;;;9.52;2.70;;;;;;;;;;5018804;28;20022;-60
2024/01/15 10:13:24;;;;;;;10.30;2.33;;;;;;;;;;5023273;28;20041;-58
2024/01/15 10:15:49;;;;;;;8.40;1.92;;;;;;;;;;5029392;28;20282;-61
2024/01/15 10:18:14;;;;;;;7.85;2.10;;;;;;;;;;5017768;28;20021;-60
2024/01/15 10:20:40;;;;;;;6.68;1.75;;;;;;;;;;5016454;28;20114;-60
2024/01/15 10:23:05;;;;;;;9.60;2.00;;;;;;;;;;5023977;28;20025;-59
2024/01/15 10:25:30;;;;;;;9.57;2.20;;;;;;;;;;5026391;28;20764;-59
2024/01/15 10:28:00;;;;;;;12.30;2.60;;;;;;;;;;5031955;28;20532;-59
2024/01/15 10:30:25;;;;;;;10.27;2.22;;;;;;;;;;5023064;28;20026;-60
2024/01/15 10:33:01;;;;;;;7.57;1.90;;;;;;;;;;5023694;28;20448;-60
2024/01/15 10:35:27;;;;;;;7.88;2.03;;;;;;;;;;5021879;28;20261;-60
2024/01/15 10:37:52;;;;;;;10.18;2.00;;;;;;;;;;5024048;28;20164;-59
2024/01/15 10:40:18;;;;;;;11.38;2.35;;;;;;;;;;5020819;28;20120;-59
2024/01/15 10:42:44;;;;;;;9.23;2.35;;;;;;;;;;5021950;28;20061;-60
2024/01/15 10:45:09;;;;;;;8.43;2.50;;;;;;;;;;5012651;28;21804;-59
2024/01/15 10:47:35;;;;;;;15.10;3.10;;;;;;;;;;5013201;28;20025;-59
2024/01/15 10:50:00;;;;;;;11.55;2.60;;;;;;;;;;5016153;28;20284;-59
2024/01/15 10:52:27;;;;;;;16.05;3.80;;;;;;;;;;5016124;28;20059;-60
2024/01/15 10:54:52;;;;;;;8.00;2.13;;;;;;;;;;5014798;28;20018;-59
2024/01/15 10:57:18;;;;;;;12.73;3.00;;;;;;;;;;5015098;28;20785;-61
2024/01/15 10:59:43;;;;;;;13.13;3.25;;;;;;;;;;5013147;28;20022;-60
2024/01/15 11:02:08;;;;;;;21.20;5.90;;;;;;;;;;5023019;28;21525;-60
2024/01/15 11:04:35;;;;;;;18.58;4.30;;;;;;;;;;5016385;28;20304;-60
2024/01/15 11:07:02;;;;;;;15.93;3.75;;;;;;;;;;5015003;28;20069;-60
2024/01/15 11:09:29;;;;;;;12.23;3.15;;;;;;;;;;5015233;28;20080;-59
2024/01/15 11:12:09;;;;;;;16.30;4.40;;;;;;;;;;5014538;28;20064;-59
2024/01/15 11:14:35;;;;;;;19.70;5.45;;;;;;;;;;5013017;28;20092;-60
2024/01/15 11:17:00;;;;;;;10.65;3.08;;;;;;;;;;5014555;28;20028;-60
2024/01/15 11:19:26;;;;;;;12.18;2.88;;;;;;;;;;5013148;28;20030;-60
2024/01/15 11:21:51;;;;;;;17.90;4.28;;;;;;;;;;5011623;28;20032;-59
2024/01/15 11:24:36;;;;;;;11.17;3.27;;;;;;;;;;5014704;28;20033;-60
2024/01/15 11:27:01;;;;;;;8.88;2.70;;;;;;;;;;5014164;28;20261;-60
2024/01/15 11:29:27;;;;;;;15.82;3.67;;;;;;;;;;5013979;28;20168;-59
2024/01/15 11:31:55;;;;;;;16.08;4.05;;;;;;;;;;5017001;28;20032;-59
2024/01/15 11:34:20;;;;;;;13.20;2.70;;;;;;;;;;5026601;28;20045;-60
2024/01/15 11:36:46;;;;;;;11.80;2.67;;;;;;;;;;5015387;28;20481;-60
2024/01/15 11:39:32;;;;;;;11.80;3.33;;;;;;;;;;5012898;28;20173;-60
2024/01/15 11:41:58;;;;;;;13.68;3.00;;;;;;;;;;5012903;28;20077;-59
2024/01/15 11:44:24;;;;;;;10.63;2.80;;;;;;;;;;5014267;28;20029;-60
2024/01/15 11:46:58;;;;;;;9.15;2.42;;;;;;;;;;5015325;28;20026;-60
2024/01/15 11:49:42;;;;;;;9.95;2.88;;;;;;;;;;5012186;28;20026;-60
2024/01/15 11:52:09;;;;;;;7.00;2.40;;;;;;;;;;5015361;28;20482;-60
2024/01/15 11:54:36;;;;;;;8.00;2.65;;;;;;;;;;5014527;28;20711;-60
2024/01/15 11:57:04;;;;;;;5.60;2.10;;;;;;;;;;5011853;28;20022;-59
2024/01/15 11:59:29;;;;;;;8.13;2.10;;;;;;;;;;5012795;28;20032;-60
2024/01/15 12:01:54;;;;;;;10.50;2.22;;;;;;;;;;5013029;28;20495;-59
2024/01/15 12:04:20;;;;;;;11.00;2.15;;;;;;;;;;5012859;28;20026;-59
2024/01/15 12:06:45;;;;;;;5.53;1.90;;;;;;;;;;5010125;28;20033;-59
2024/01/15 12:09:11;;;;;;;6.37;2.20;;;;;;;;;;5012475;28;20022;-59
2024/01/15 12:11:37;;;;;;;6.68;2.20;;;;;;;;;;5013425;28;20342;-60
2024/01/15 12:14:02;;;;;;;8.27;2.28;;;;;;;;;;5012340;28;20060;-60
2024/01/15 12:16:28;;;;;;;7.73;2.10;;;;;;;;;;5010153;28;20029;-59
2024/01/15 12:18:53;;;;;;;8.53;2.10;;;;;;;;;;5010797;28;20695;-60
2024/01/15 12:21:19;;;;;;;7.25;2.38;;;;;;;;;;5015363;28;20273;-61
2024/01/15 12:23:46;;;;;;;7.80;2.40;;;;;;;;;;5016492;28;20045;-59
2024/01/15 12:26:11;;;;;;;6.13;2.38;;;;;;;;;;5028105;28;20026;-59
2024/01/15 12:28:36;;;;;;;8.00;2.55;;;;;;;;;;5025430;28;20064;-59
2024/01/15 12:31:05;;;;;;;13.35;3.35;;;;;;;;;;5016140;28;20021;-59
2024/01/15 12:33:30;;;;;;;12.23;3.58;;;;;;;;;;5014504;28;20145;-60
2024/01/15 12:35:55;;;;;;;12.63;3.50;;;;;;;;;;5017681;28;20092;-60
2024/01/15 12:38:20;;;;;;;10.90;3.22;;;;;;;;;;5024959;28;20035;-60
2024/01/15 12:40:49;;;;;;;12.48;3.80;;;;;;;;;;5030684;28;20504;-59
2024/01/15 12:43:14;;;;;;;10.30;3.70;;;;;;;;;;5013836;28;20029;-60
2024/01/15 12:45:40;;;;;;;13.73;4.80;;;;;;;;;;5014047;28;20022;-59
2024/01/15 12:48:05;;;;;;;14.15;4.07;;;;;;;;;;5013648;28;21323;-60
2024/01/15 12:50:32;;;;;;;12.15;3.65;;;;;;;;;;5015555;28;20750;-60
2024/01/15 12:52:59;;;;;;;9.23;3.50;;;;;;;;;;5014018;28;20025;-59
2024/01/15 12:55:24;;;;;;;8.32;3.10;;;;;;;;;;5015704;28;20109;-61
2024/01/15 12:57:52;;;;;;;10.23;3.40;;;;;;;;;;5011858;28;20561;-59
2024/01/15 13:00:17;;;;;;;12.00;3.17;;;;;;;;;;5014297;28;20263;-60
2024/01/15 13:02:43;;;;;;;12.45;3.10;;;;;;;;;;5013800;28;20033;-59
2024/01/15 13:05:11;;;;;;;9.48;3.08;;;;;;;;;;5014328;28;20048;-60
2024/01/15 13:07:36;;;;;;;16.67;4.57;;;;;;;;;;5014013;28;20049;-59
2024/01/15 13:10:02;;;;;;;13.55;3.20;;;;;;;;;;5015911;28;20467;-60
2024/01/15 13:12:27;;;;;;;11.23;3.35;;;;;;;;;;5010724;28;20037;-59
2024/01/15 13:14:53;;;;;;;12.00;3.42;;;;;;;;;;5010654;28;20085;-59
2024/01/15 13:17:19;;;;;;;9.02;2.95;;;;;;;;;;5009674;28;20113;-59
2024/01/15 13:19:44;;;;;;;7.78;3.25;;;;;;;;;;5010646;28;20704;-59
2024/01/15 13:22:09;;;;;;;10.53;3.17;;;;;;;;;;5011170;28;20034;-59
2024/01/15 13:24:35;;;;;;;10.35;3.60;;;;;;;;;;5010310;28;20465;-61
2024/01/15 13:27:01;;;;;;;11.60;4.47;;;;;;;;;;5011289;28;20025;-59
2024/01/15 13:29:26;;;;;;;11.07;3.67;;;;;;;;;;5010457;28;20036;-61
2024/01/15 13:31:51;;;;;;;9.63;3.70;;;;;;;;;;5011603;28;21906;-60
2024/01/15 13:34:16;;;;;;;9.75;3.83;;;;;;;;;;5011908;28;20276;-60
2024/01/15 13:36:42;;;;;;;10.63;4.10;;;;;;;;;;5010362;28;20027;-60
2024/01/15 13:39:10;;;;;;;9.70;3.70;;;;;;;;;;5010938;28;20284;-61
2024/01/15 13:41:36;;;;;;;13.30;4.50;;;;;;;;;;5008748;28;20690;-61
2024/01/15 13:44:01;;;;;;;10.02;3.85;;;;;;;;;;5012129;28;20064;-58
2024/01/15 13:46:26;;;;;;;10.53;3.30;;;;;;;;;;5015794;28;20022;-59
2024/01/15 13:48:51;;;;;;;8.20;2.80;;;;;;;;;;5025626;28;21038;-60
2024/01/15 13:51:17;;;;;;;9.65;3.10;;;;;;;;;;5022635;28;20037;-60
2024/01/15 13:53:42;;;;;;;9.00;3.10;;;;;;;;;;5016464;28;20052;-59
2024/01/15 13:56:09;;;;;;;8.63;2.67;;;;;;;;;;5016117;28;20080;-59
2024/01/15 13:58:34;;;;;;;8.20;2.60;;;;;;;;;;5014392;28;20745;-59
2024/01/15 14:01:00;;;;;;;8.98;2.63;;;;;;;;;;5024996;28;20030;-59
2024/01/15 14:03:25;;;;;;;7.80;2.70;;;;;;;;;;5018739;28;20040;-60
2024/01/15 14:05:51;;;;;;;7.30;2.60;;;;;;;;;;5012744;28;20088;-60
2024/01/15 14:08:16;;;;;;;7.60;2.50;;;;;;;;;;5012999;28;20033;-59
2024/01/15 14:10:42;;;;;;;8.32;2.80;;;;;;;;;;5011508;28;20022;-60
2024/01/15 14:13:07;;;;;;;8.03;2.40;;;;;;;;;;5012562;28;20042;-60
2024/01/15 14:15:32;;;;;;;10.33;2.90;;;;;;;;;;5012478;28;20304;-60
2024/01/15 14:17:58;;;;;;;10.15;2.90;;;;;;;;;;5012697;28;20387;-60
2024/01/15 14:20:23;;;;;;;11.13;3.05;;;;;;;;;;5012534;28;20076;-60
2024/01/15 14:22:48;;;;;;;17.48;3.55;;;;;;;;;;5012624;28;20038;-60